sensor_id;sensor_type;location;lat;lon;timestamp;P1;durP1;ratioP1;P2;durP2;ratioP2
62584;SDS011;48643;51.670;5.808;2023-11-21T00:00:16;8.38;;;5.28;;
62584;SDS011;48643;51.670;5.808;2023-11-21T00:02:44;8.40;;;5.45;;
62584;SDS011;48643;51.670;5.808;2023-11-21T00:05:13;8.32;;;5.75;;
62584;SDS011;48643;51.670;5.808;2023-11-21T00:07:43;10.85;;;5.55;;
62584;SDS011;48643;51.670;5.808;2023-11-21T00:10:10;8.18;;;5.13;;
62584;SDS011;48643;51.670;5.808;2023-11-21T00:12:40;11.23;;;6.00;;
62584;SDS011;48643;51.670;5.808;2023-11-21T00:15:08;9.07;;;5.32;;
62584;SDS011;48643;51.670;5.808;2023-11-21T00:17:37;9.67;;;5.90;;
62584;SDS011;48643;51.670;5.808;2023-11-21T00:20:05;8.90;;;5.80;;
62584;SDS011;48643;51.670;5.808;2023-11-21T00:22:33;9.85;;;5.63;;
62584;SDS011;48643;51.670;5.808;2023-11-21T00:25:01;12.77;;;5.80;;
62584;SDS011;48643;51.670;5.808;2023-11-21T00:27:30;8.43;;;5.32;;
62584;SDS011;48643;51.670;5.808;2023-11-21T00:29:56;10.52;;;5.70;;
62584;SDS011;48643;51.670;5.808;2023-11-21T00:32:23;9.60;;;5.55;;
62584;SDS011;48643;51.670;5.808;2023-11-21T00:34:50;10.88;;;5.70;;
62584;SDS011;48643;51.670;5.808;2023-11-21T00:37:17;8.65;;;5.28;;
62584;SDS011;48643;51.670;5.808;2023-11-21T00:39:44;8.32;;;5.35;;
62584;SDS011;48643;51.670;5.808;2023-11-21T00:42:11;8.93;;;5.60;;
62584;SDS011;48643;51.670;5.808;2023-11-21T00:44:38;9.57;;;5.50;;
62584;SDS011;48643;51.670;5.808;2023-11-21T00:47:05;8.88;;;5.68;;
62584;SDS011;48643;51.670;5.808;2023-11-21T00:49:34;9.60;;;5.60;;
62584;SDS011;48643;51.670;5.808;2023-11-21T00:52:01;8.95;;;5.38;;
62584;SDS011;48643;51.670;5.808;2023-11-21T00:54:29;8.52;;;5.53;;
62584;SDS011;48643;51.670;5.808;2023-11-21T00:56:58;8.35;;;5.15;;
62584;SDS011;48643;51.670;5.808;2023-11-21T00:59:25;7.95;;;5.30;;
62584;SDS011;48643;51.670;5.808;2023-11-21T01:01:52;8.50;;;5.30;;
62584;SDS011;48643;51.670;5.808;2023-11-21T01:04:20;9.57;;;5.82;;
62584;SDS011;48643;51.670;5.808;2023-11-21T01:06:47;9.02;;;5.70;;
62584;SDS011;48643;51.670;5.808;2023-11-21T01:09:14;10.52;;;5.43;;
62584;SDS011;48643;51.670;5.808;2023-11-21T01:11:41;10.23;;;5.70;;
62584;SDS011;48643;51.670;5.808;2023-11-21T01:14:09;8.43;;;5.43;;
62584;SDS011;48643;51.670;5.808;2023-11-21T01:16:37;8.68;;;5.78;;
62584;SDS011;48643;51.670;5.808;2023-11-21T01:19:03;9.35;;;5.40;;
62584;SDS011;48643;51.670;5.808;2023-11-21T01:21:31;9.23;;;5.47;;
62584;SDS011;48643;51.670;5.808;2023-11-21T01:23:58;9.55;;;5.22;;
62584;SDS011;48643;51.670;5.808;2023-11-21T01:26:24;8.35;;;5.20;;
62584;SDS011;48643;51.670;5.808;2023-11-21T01:28:51;11.27;;;5.82;;
62584;SDS011;48643;51.670;5.808;2023-11-21T01:31:18;9.05;;;5.90;;
62584;SDS011;48643;51.670;5.808;2023-11-21T01:33:46;10.80;;;6.38;;
62584;SDS011;48643;51.670;5.808;2023-11-21T01:36:14;11.07;;;5.93;;
62584;SDS011;48643;51.670;5.808;2023-11-21T01:38:41;13.68;;;6.25;;
62584;SDS011;48643;51.670;5.808;2023-11-21T01:41:08;10.35;;;6.38;;
62584;SDS011;48643;51.670;5.808;2023-11-21T01:43:37;13.18;;;5.90;;
62584;SDS011;48643;51.670;5.808;2023-11-21T01:46:04;11.02;;;5.97;;
62584;SDS011;48643;51.670;5.808;2023-11-21T01:48:32;11.70;;;6.18;;
62584;SDS011;48643;51.670;5.808;2023-11-21T01:51:00;10.93;;;6.25;;
62584;SDS011;48643;51.670;5.808;2023-11-21T01:53:28;11.20;;;6.40;;
62584;SDS011;48643;51.670;5.808;2023-11-21T01:55:55;9.77;;;6.20;;
62584;SDS011;48643;51.670;5.808;2023-11-21T01:58:25;10.32;;;6.35;;
62584;SDS011;48643;51.670;5.808;2023-11-21T02:00:52;13.00;;;6.78;;
62584;SDS011;48643;51.670;5.808;2023-11-21T02:03:21;11.30;;;6.38;;
62584;SDS011;48643;51.670;5.808;2023-11-21T02:05:48;10.73;;;6.18;;
62584;SDS011;48643;51.670;5.808;2023-11-21T02:08:16;12.82;;;6.70;;
62584;SDS011;48643;51.670;5.808;2023-11-21T02:10:42;10.10;;;6.10;;
62584;SDS011;48643;51.670;5.808;2023-11-21T02:13:09;10.48;;;6.50;;
62584;SDS011;48643;51.670;5.808;2023-11-21T02:15:37;11.07;;;6.13;;
62584;SDS011;48643;51.670;5.808;2023-11-21T02:18:05;12.23;;;6.70;;
62584;SDS011;48643;51.670;5.808;2023-11-21T02:20:32;11.02;;;6.20;;
62584;SDS011;48643;51.670;5.808;2023-11-21T02:23:03;10.57;;;6.85;;
62584;SDS011;48643;51.670;5.808;2023-11-21T02:25:31;10.98;;;6.68;;
62584;SDS011;48643;51.670;5.808;2023-11-21T02:28:00;10.95;;;7.00;;
62584;SDS011;48643;51.670;5.808;2023-11-21T02:30:29;10.03;;;6.37;;
62584;SDS011;48643;51.670;5.808;2023-11-21T02:33:00;10.25;;;6.55;;
62584;SDS011;48643;51.670;5.808;2023-11-21T02:35:28;10.07;;;6.35;;
62584;SDS011;48643;51.670;5.808;2023-11-21T02:37:57;9.90;;;6.55;;
62584;SDS011;48643;51.670;5.808;2023-11-21T02:40:24;11.75;;;6.72;;
62584;SDS011;48643;51.670;5.808;2023-11-21T02:42:53;12.55;;;7.10;;
62584;SDS011;48643;51.670;5.808;2023-11-21T02:45:21;9.80;;;6.47;;
62584;SDS011;48643;51.670;5.808;2023-11-21T02:47:50;11.03;;;6.80;;
62584;SDS011;48643;51.670;5.808;2023-11-21T02:50:19;9.55;;;6.40;;
62584;SDS011;48643;51.670;5.808;2023-11-21T02:52:46;10.35;;;7.03;;
62584;SDS011;48643;51.670;5.808;2023-11-21T02:55:13;11.35;;;6.80;;
62584;SDS011;48643;51.670;5.808;2023-11-21T02:57:41;11.52;;;6.97;;
62584;SDS011;48643;51.670;5.808;2023-11-21T03:00:08;10.65;;;6.95;;
62584;SDS011;48643;51.670;5.808;2023-11-21T03:02:40;10.52;;;6.75;;
62584;SDS011;48643;51.670;5.808;2023-11-21T03:05:07;11.70;;;7.18;;
62584;SDS011;48643;51.670;5.808;2023-11-21T03:07:37;10.23;;;6.45;;
62584;SDS011;48643;51.670;5.808;2023-11-21T03:10:05;10.55;;;6.65;;
62584;SDS011;48643;51.670;5.808;2023-11-21T03:12:35;11.05;;;6.68;;
62584;SDS011;48643;51.670;5.808;2023-11-21T03:15:07;11.65;;;6.85;;
62584;SDS011;48643;51.670;5.808;2023-11-21T03:17:35;10.50;;;6.70;;
62584;SDS011;48643;51.670;5.808;2023-11-21T03:20:02;12.07;;;6.88;;
62584;SDS011;48643;51.670;5.808;2023-11-21T03:22:31;9.77;;;6.75;;
62584;SDS011;48643;51.670;5.808;2023-11-21T03:24:58;11.57;;;6.85;;
62584;SDS011;48643;51.670;5.808;2023-11-21T03:27:26;10.57;;;6.63;;
62584;SDS011;48643;51.670;5.808;2023-11-21T03:29:52;9.02;;;6.28;;
62584;SDS011;48643;51.670;5.808;2023-11-21T03:32:21;8.75;;;6.28;;
62584;SDS011;48643;51.670;5.808;2023-11-21T03:34:54;10.50;;;6.82;;
62584;SDS011;48643;51.670;5.808;2023-11-21T03:37:23;11.80;;;7.13;;
62584;SDS011;48643;51.670;5.808;2023-11-21T03:39:51;9.60;;;6.45;;
62584;SDS011;48643;51.670;5.808;2023-11-21T03:42:18;11.52;;;6.93;;
62584;SDS011;48643;51.670;5.808;2023-11-21T03:44:45;8.55;;;6.22;;
62584;SDS011;48643;51.670;5.808;2023-11-21T03:47:13;9.45;;;6.70;;
62584;SDS011;48643;51.670;5.808;2023-11-21T03:49:40;10.00;;;6.82;;
62584;SDS011;48643;51.670;5.808;2023-11-21T03:52:06;11.43;;;7.13;;
62584;SDS011;48643;51.670;5.808;2023-11-21T03:54:35;10.32;;;6.65;;
62584;SDS011;48643;51.670;5.808;2023-11-21T03:57:02;10.07;;;6.78;;
62584;SDS011;48643;51.670;5.808;2023-11-21T03:59:29;11.52;;;7.43;;
62584;SDS011;48643;51.670;5.808;2023-11-21T04:01:56;10.52;;;7.03;;
62584;SDS011;48643;51.670;5.808;2023-11-21T04:04:23;10.30;;;7.05;;
62584;SDS011;48643;51.670;5.808;2023-11-21T04:06:50;11.15;;;7.22;;
62584;SDS011;48643;51.670;5.808;2023-11-21T04:09:18;11.55;;;6.65;;
62584;SDS011;48643;51.670;5.808;2023-11-21T04:11:45;10.48;;;6.53;;
62584;SDS011;48643;51.670;5.808;2023-11-21T04:14:13;10.10;;;6.70;;
62584;SDS011;48643;51.670;5.808;2023-11-21T04:16:40;10.15;;;6.45;;
62584;SDS011;48643;51.670;5.808;2023-11-21T04:19:08;9.93;;;6.80;;
62584;SDS011;48643;51.670;5.808;2023-11-21T04:21:41;11.18;;;6.57;;
62584;SDS011;48643;51.670;5.808;2023-11-21T04:24:08;10.05;;;6.78;;
62584;SDS011;48643;51.670;5.808;2023-11-21T04:26:35;10.38;;;6.32;;
62584;SDS011;48643;51.670;5.808;2023-11-21T04:29:03;10.27;;;6.78;;
62584;SDS011;48643;51.670;5.808;2023-11-21T04:31:31;9.77;;;6.93;;
62584;SDS011;48643;51.670;5.808;2023-11-21T04:33:58;9.05;;;6.10;;
62584;SDS011;48643;51.670;5.808;2023-11-21T04:36:25;10.50;;;6.60;;
62584;SDS011;48643;51.670;5.808;2023-11-21T04:38:53;11.18;;;6.70;;
62584;SDS011;48643;51.670;5.808;2023-11-21T04:41:19;9.35;;;6.63;;
62584;SDS011;48643;51.670;5.808;2023-11-21T04:43:46;9.77;;;6.30;;
62584;SDS011;48643;51.670;5.808;2023-11-21T04:46:13;10.95;;;6.85;;
62584;SDS011;48643;51.670;5.808;2023-11-21T04:48:40;11.68;;;7.07;;
62584;SDS011;48643;51.670;5.808;2023-11-21T04:51:07;8.80;;;6.47;;
62584;SDS011;48643;51.670;5.808;2023-11-21T04:53:34;11.80;;;7.30;;
62584;SDS011;48643;51.670;5.808;2023-11-21T04:56:01;9.93;;;6.35;;
62584;SDS011;48643;51.670;5.808;2023-11-21T04:58:29;9.20;;;6.20;;
62584;SDS011;48643;51.670;5.808;2023-11-21T05:00:57;10.38;;;7.00;;
62584;SDS011;48643;51.670;5.808;2023-11-21T05:03:24;11.02;;;7.05;;
62584;SDS011;48643;51.670;5.808;2023-11-21T05:05:51;9.85;;;6.78;;
62584;SDS011;48643;51.670;5.808;2023-11-21T05:08:18;10.25;;;6.93;;
62584;SDS011;48643;51.670;5.808;2023-11-21T05:10:46;10.43;;;6.97;;
62584;SDS011;48643;51.670;5.808;2023-11-21T05:13:14;10.35;;;6.70;;
62584;SDS011;48643;51.670;5.808;2023-11-21T05:15:42;10.43;;;6.88;;
62584;SDS011;48643;51.670;5.808;2023-11-21T05:18:08;9.68;;;6.70;;
62584;SDS011;48643;51.670;5.808;2023-11-21T05:20:36;10.07;;;7.03;;
62584;SDS011;48643;51.670;5.808;2023-11-21T05:23:04;9.57;;;6.57;;
62584;SDS011;48643;51.670;5.808;2023-11-21T05:25:31;10.25;;;6.93;;
62584;SDS011;48643;51.670;5.808;2023-11-21T05:27:58;10.60;;;7.07;;
62584;SDS011;48643;51.670;5.808;2023-11-21T05:30:27;10.45;;;7.10;;
62584;SDS011;48643;51.670;5.808;2023-11-21T05:32:54;10.98;;;6.95;;
62584;SDS011;48643;51.670;5.808;2023-11-21T05:35:21;10.73;;;6.75;;
62584;SDS011;48643;51.670;5.808;2023-11-21T05:37:48;10.68;;;6.72;;
62584;SDS011;48643;51.670;5.808;2023-11-21T05:40:15;11.63;;;7.00;;
62584;SDS011;48643;51.670;5.808;2023-11-21T05:42:42;11.32;;;6.93;;
62584;SDS011;48643;51.670;5.808;2023-11-21T05:45:10;11.70;;;7.32;;
62584;SDS011;48643;51.670;5.808;2023-11-21T05:47:41;11.55;;;7.30;;
62584;SDS011;48643;51.670;5.808;2023-11-21T05:50:15;10.05;;;6.75;;
62584;SDS011;48643;51.670;5.808;2023-11-21T05:52:46;11.70;;;7.40;;
62584;SDS011;48643;51.670;5.808;2023-11-21T05:55:13;11.23;;;7.15;;
62584;SDS011;48643;51.670;5.808;2023-11-21T05:57:41;10.45;;;6.45;;
62584;SDS011;48643;51.670;5.808;2023-11-21T06:00:10;10.45;;;6.82;;
62584;SDS011;48643;51.670;5.808;2023-11-21T06:02:44;11.35;;;6.65;;
62584;SDS011;48643;51.670;5.808;2023-11-21T06:05:11;11.35;;;6.60;;
62584;SDS011;48643;51.670;5.808;2023-11-21T06:07:38;11.35;;;7.10;;
62584;SDS011;48643;51.670;5.808;2023-11-21T06:10:07;10.45;;;7.03;;
62584;SDS011;48643;51.670;5.808;2023-11-21T06:12:37;11.35;;;7.20;;
62584;SDS011;48643;51.670;5.808;2023-11-21T06:15:04;10.40;;;6.82;;
62584;SDS011;48643;51.670;5.808;2023-11-21T06:17:33;13.13;;;7.22;;
62584;SDS011;48643;51.670;5.808;2023-11-21T06:20:04;10.60;;;6.50;;
62584;SDS011;48643;51.670;5.808;2023-11-21T06:22:36;11.15;;;7.03;;
62584;SDS011;48643;51.670;5.808;2023-11-21T06:25:04;10.48;;;6.65;;
62584;SDS011;48643;51.670;5.808;2023-11-21T06:27:32;13.52;;;7.55;;
62584;SDS011;48643;51.670;5.808;2023-11-21T06:29:59;10.45;;;6.78;;
62584;SDS011;48643;51.670;5.808;2023-11-21T06:32:26;12.65;;;6.53;;
62584;SDS011;48643;51.670;5.808;2023-11-21T06:37:26;10.35;;;6.88;;
62584;SDS011;48643;51.670;5.808;2023-11-21T06:39:54;9.95;;;6.50;;
62584;SDS011;48643;51.670;5.808;2023-11-21T06:42:21;9.68;;;6.47;;
62584;SDS011;48643;51.670;5.808;2023-11-21T06:44:48;10.88;;;6.53;;
62584;SDS011;48643;51.670;5.808;2023-11-21T06:47:15;10.50;;;6.70;;
62584;SDS011;48643;51.670;5.808;2023-11-21T06:49:42;10.25;;;6.63;;
62584;SDS011;48643;51.670;5.808;2023-11-21T06:52:09;9.32;;;6.40;;
62584;SDS011;48643;51.670;5.808;2023-11-21T06:54:36;10.98;;;6.15;;
62584;SDS011;48643;51.670;5.808;2023-11-21T06:57:03;8.98;;;6.43;;
62584;SDS011;48643;51.670;5.808;2023-11-21T06:59:30;9.45;;;6.30;;
62584;SDS011;48643;51.670;5.808;2023-11-21T07:01:57;10.05;;;7.00;;
62584;SDS011;48643;51.670;5.808;2023-11-21T07:04:24;11.75;;;6.95;;
62584;SDS011;48643;51.670;5.808;2023-11-21T07:06:54;12.20;;;6.88;;
62584;SDS011;48643;51.670;5.808;2023-11-21T07:09:21;9.32;;;6.65;;
62584;SDS011;48643;51.670;5.808;2023-11-21T07:11:49;9.40;;;6.43;;
62584;SDS011;48643;51.670;5.808;2023-11-21T07:14:15;11.63;;;6.70;;
62584;SDS011;48643;51.670;5.808;2023-11-21T07:16:43;9.77;;;6.53;;
62584;SDS011;48643;51.670;5.808;2023-11-21T07:19:10;11.48;;;6.88;;
62584;SDS011;48643;51.670;5.808;2023-11-21T07:21:38;9.40;;;6.30;;
62584;SDS011;48643;51.670;5.808;2023-11-21T07:24:06;10.80;;;6.72;;
62584;SDS011;48643;51.670;5.808;2023-11-21T07:26:34;9.73;;;6.18;;
62584;SDS011;48643;51.670;5.808;2023-11-21T07:29:01;9.25;;;6.43;;
62584;SDS011;48643;51.670;5.808;2023-11-21T07:31:29;14.63;;;9.43;;
62584;SDS011;48643;51.670;5.808;2023-11-21T07:33:56;16.20;;;10.15;;
62584;SDS011;48643;51.670;5.808;2023-11-21T07:36:24;14.50;;;9.32;;
62584;SDS011;48643;51.670;5.808;2023-11-21T07:38:51;17.95;;;9.05;;
62584;SDS011;48643;51.670;5.808;2023-11-21T07:41:18;13.73;;;8.70;;
62584;SDS011;48643;51.670;5.808;2023-11-21T07:43:56;15.95;;;8.70;;
62584;SDS011;48643;51.670;5.808;2023-11-21T07:46:23;15.45;;;9.20;;
62584;SDS011;48643;51.670;5.808;2023-11-21T07:48:52;13.07;;;8.65;;
62584;SDS011;48643;51.670;5.808;2023-11-21T07:51:19;14.63;;;8.63;;
62584;SDS011;48643;51.670;5.808;2023-11-21T07:53:46;14.00;;;8.88;;
62584;SDS011;48643;51.670;5.808;2023-11-21T07:56:13;13.43;;;8.95;;
62584;SDS011;48643;51.670;5.808;2023-11-21T07:58:40;14.63;;;8.40;;
62584;SDS011;48643;51.670;5.808;2023-11-21T08:01:07;10.80;;;8.10;;
62584;SDS011;48643;51.670;5.808;2023-11-21T08:03:34;13.52;;;8.38;;
62584;SDS011;48643;51.670;5.808;2023-11-21T08:06:01;13.48;;;8.23;;
62584;SDS011;48643;51.670;5.808;2023-11-21T08:08:30;14.73;;;8.68;;
62584;SDS011;48643;51.670;5.808;2023-11-21T08:10:56;13.65;;;8.57;;
62584;SDS011;48643;51.670;5.808;2023-11-21T08:13:27;17.58;;;9.07;;
62584;SDS011;48643;51.670;5.808;2023-11-21T08:15:57;13.25;;;8.52;;
62584;SDS011;48643;51.670;5.808;2023-11-21T08:18:28;12.32;;;8.55;;
62584;SDS011;48643;51.670;5.808;2023-11-21T08:20:56;13.60;;;8.50;;
62584;SDS011;48643;51.670;5.808;2023-11-21T08:23:23;11.00;;;8.15;;
62584;SDS011;48643;51.670;5.808;2023-11-21T08:25:53;12.45;;;7.97;;
62584;SDS011;48643;51.670;5.808;2023-11-21T08:28:21;13.15;;;7.15;;
62584;SDS011;48643;51.670;5.808;2023-11-21T08:30:52;12.70;;;7.97;;
62584;SDS011;48643;51.670;5.808;2023-11-21T08:33:21;12.80;;;7.63;;
62584;SDS011;48643;51.670;5.808;2023-11-21T08:35:48;13.43;;;7.65;;
62584;SDS011;48643;51.670;5.808;2023-11-21T08:38:15;15.80;;;8.55;;
62584;SDS011;48643;51.670;5.808;2023-11-21T08:40:42;11.75;;;7.50;;
62584;SDS011;48643;51.670;5.808;2023-11-21T08:43:09;11.07;;;6.60;;
62584;SDS011;48643;51.670;5.808;2023-11-21T08:45:38;10.63;;;6.25;;
62584;SDS011;48643;51.670;5.808;2023-11-21T08:48:05;16.38;;;6.50;;
62584;SDS011;48643;51.670;5.808;2023-11-21T08:50:32;14.98;;;6.57;;
62584;SDS011;48643;51.670;5.808;2023-11-21T08:52:59;11.05;;;6.15;;
62584;SDS011;48643;51.670;5.808;2023-11-21T08:55:26;12.23;;;6.60;;
62584;SDS011;48643;51.670;5.808;2023-11-21T08:57:54;10.27;;;6.35;;
62584;SDS011;48643;51.670;5.808;2023-11-21T09:00:23;11.40;;;6.47;;
62584;SDS011;48643;51.670;5.808;2023-11-21T09:02:50;9.98;;;5.53;;
62584;SDS011;48643;51.670;5.808;2023-11-21T09:05:18;10.13;;;5.93;;
62584;SDS011;48643;51.670;5.808;2023-11-21T09:07:47;12.93;;;6.10;;
62584;SDS011;48643;51.670;5.808;2023-11-21T09:10:15;13.43;;;6.10;;
62584;SDS011;48643;51.670;5.808;2023-11-21T09:12:42;13.10;;;5.82;;
62584;SDS011;48643;51.670;5.808;2023-11-21T09:15:09;12.68;;;5.40;;
62584;SDS011;48643;51.670;5.808;2023-11-21T09:17:37;14.95;;;5.80;;
62584;SDS011;48643;51.670;5.808;2023-11-21T09:20:05;10.40;;;6.13;;
62584;SDS011;48643;51.670;5.808;2023-11-21T09:22:32;19.48;;;5.97;;
62584;SDS011;48643;51.670;5.808;2023-11-21T09:25:01;25.17;;;5.83;;
62584;SDS011;48643;51.670;5.808;2023-11-21T09:27:31;15.23;;;5.80;;
62584;SDS011;48643;51.670;5.808;2023-11-21T09:29:58;21.20;;;5.85;;
62584;SDS011;48643;51.670;5.808;2023-11-21T09:32:25;20.40;;;5.88;;
62584;SDS011;48643;51.670;5.808;2023-11-21T09:34:51;25.30;;;5.85;;
62584;SDS011;48643;51.670;5.808;2023-11-21T09:37:20;10.35;;;5.25;;
62584;SDS011;48643;51.670;5.808;2023-11-21T09:39:47;13.43;;;5.00;;
62584;SDS011;48643;51.670;5.808;2023-11-21T09:42:20;22.60;;;5.55;;
62584;SDS011;48643;51.670;5.808;2023-11-21T09:44:53;16.85;;;5.80;;
62584;SDS011;48643;51.670;5.808;2023-11-21T09:47:25;15.95;;;5.20;;
62584;SDS011;48643;51.670;5.808;2023-11-21T09:49:54;22.38;;;5.60;;
62584;SDS011;48643;51.670;5.808;2023-11-21T09:52:25;26.17;;;11.68;;
62584;SDS011;48643;51.670;5.808;2023-11-21T09:54:53;27.85;;;13.77;;
62584;SDS011;48643;51.670;5.808;2023-11-21T09:57:20;24.42;;;13.73;;
62584;SDS011;48643;51.670;5.808;2023-11-21T09:59:51;27.55;;;13.65;;
62584;SDS011;48643;51.670;5.808;2023-11-21T10:02:26;30.75;;;14.43;;
62584;SDS011;48643;51.670;5.808;2023-11-21T10:04:56;24.65;;;12.18;;
62584;SDS011;48643;51.670;5.808;2023-11-21T10:07:23;31.13;;;11.88;;
62584;SDS011;48643;51.670;5.808;2023-11-21T10:09:50;22.73;;;10.40;;
62584;SDS011;48643;51.670;5.808;2023-11-21T10:12:17;17.83;;;9.48;;
62584;SDS011;48643;51.670;5.808;2023-11-21T10:14:46;17.27;;;9.10;;
62584;SDS011;48643;51.670;5.808;2023-11-21T10:17:15;20.35;;;8.63;;
62584;SDS011;48643;51.670;5.808;2023-11-21T10:19:48;23.70;;;8.32;;
62584;SDS011;48643;51.670;5.808;2023-11-21T10:22:15;16.05;;;8.13;;
62584;SDS011;48643;51.670;5.808;2023-11-21T10:24:43;16.17;;;8.35;;
62584;SDS011;48643;51.670;5.808;2023-11-21T10:27:19;18.48;;;7.55;;
62584;SDS011;48643;51.670;5.808;2023-11-21T10:29:46;15.13;;;7.45;;
62584;SDS011;48643;51.670;5.808;2023-11-21T10:32:13;18.92;;;7.68;;
62584;SDS011;48643;51.670;5.808;2023-11-21T10:34:40;16.92;;;7.43;;
62584;SDS011;48643;51.670;5.808;2023-11-21T10:37:11;16.75;;;8.00;;
62584;SDS011;48643;51.670;5.808;2023-11-21T10:39:38;17.75;;;8.00;;
62584;SDS011;48643;51.670;5.808;2023-11-21T10:42:07;18.25;;;7.88;;
62584;SDS011;48643;51.670;5.808;2023-11-21T10:44:35;14.57;;;7.60;;
62584;SDS011;48643;51.670;5.808;2023-11-21T10:47:02;14.45;;;7.63;;
62584;SDS011;48643;51.670;5.808;2023-11-21T10:49:30;16.63;;;7.30;;
62584;SDS011;48643;51.670;5.808;2023-11-21T10:51:57;18.23;;;8.02;;
62584;SDS011;48643;51.670;5.808;2023-11-21T10:54:24;14.00;;;7.45;;
62584;SDS011;48643;51.670;5.808;2023-11-21T10:56:58;17.27;;;7.63;;
62584;SDS011;48643;51.670;5.808;2023-11-21T10:59:30;12.30;;;6.85;;
62584;SDS011;48643;51.670;5.808;2023-11-21T11:01:59;13.05;;;7.22;;
62584;SDS011;48643;51.670;5.808;2023-11-21T11:04:30;12.45;;;7.07;;
62584;SDS011;48643;51.670;5.808;2023-11-21T11:06:58;13.02;;;7.30;;
62584;SDS011;48643;51.670;5.808;2023-11-21T11:09:31;16.30;;;7.13;;
62584;SDS011;48643;51.670;5.808;2023-11-21T11:12:02;13.20;;;7.10;;
62584;SDS011;48643;51.670;5.808;2023-11-21T11:14:31;13.00;;;6.68;;
62584;SDS011;48643;51.670;5.808;2023-11-21T11:16:59;13.38;;;6.85;;
62584;SDS011;48643;51.670;5.808;2023-11-21T11:19:29;14.30;;;7.05;;
62584;SDS011;48643;51.670;5.808;2023-11-21T11:35:38;12.65;;;6.53;;
62584;SDS011;48643;51.670;5.808;2023-11-21T11:38:08;12.25;;;6.68;;
62584;SDS011;48643;51.670;5.808;2023-11-21T11:40:40;14.07;;;6.85;;
62584;SDS011;48643;51.670;5.808;2023-11-21T11:43:08;13.48;;;7.00;;
62584;SDS011;48643;51.670;5.808;2023-11-21T11:45:36;11.88;;;6.65;;
62584;SDS011;48643;51.670;5.808;2023-11-21T11:48:08;12.68;;;6.68;;
62584;SDS011;48643;51.670;5.808;2023-11-21T11:51:15;11.82;;;6.43;;
62584;SDS011;48643;51.670;5.808;2023-11-21T11:53:41;12.68;;;6.47;;
62584;SDS011;48643;51.670;5.808;2023-11-21T11:56:25;11.00;;;6.43;;
62584;SDS011;48643;51.670;5.808;2023-11-21T11:58:54;12.63;;;6.18;;
62584;SDS011;48643;51.670;5.808;2023-11-21T12:01:22;12.20;;;6.50;;
62584;SDS011;48643;51.670;5.808;2023-11-21T12:06:37;11.98;;;6.32;;
62584;SDS011;48643;51.670;5.808;2023-11-21T12:09:05;11.80;;;6.32;;
62584;SDS011;48643;51.670;5.808;2023-11-21T12:11:32;13.55;;;6.30;;
62584;SDS011;48643;51.670;5.808;2023-11-21T12:14:01;12.02;;;6.40;;
62584;SDS011;48643;51.670;5.808;2023-11-21T12:16:29;12.27;;;6.90;;
62584;SDS011;48643;51.670;5.808;2023-11-21T12:18:59;12.02;;;6.57;;
62584;SDS011;48643;51.670;5.808;2023-11-21T12:21:27;10.65;;;6.63;;
62584;SDS011;48643;51.670;5.808;2023-11-21T12:23:55;13.27;;;6.95;;
62584;SDS011;48643;51.670;5.808;2023-11-21T12:26:23;12.15;;;7.03;;
62584;SDS011;48643;51.670;5.808;2023-11-21T12:28:53;11.15;;;6.15;;
62584;SDS011;48643;51.670;5.808;2023-11-21T12:31:25;12.55;;;7.10;;
62584;SDS011;48643;51.670;5.808;2023-11-21T12:33:53;11.18;;;6.85;;
62584;SDS011;48643;51.670;5.808;2023-11-21T12:36:21;17.48;;;6.82;;
62584;SDS011;48643;51.670;5.808;2023-11-21T12:38:48;11.73;;;6.50;;
62584;SDS011;48643;51.670;5.808;2023-11-21T12:41:16;13.52;;;7.30;;
62584;SDS011;48643;51.670;5.808;2023-11-21T12:43:44;12.25;;;6.43;;
62584;SDS011;48643;51.670;5.808;2023-11-21T12:46:12;12.07;;;6.80;;
62584;SDS011;48643;51.670;5.808;2023-11-21T12:48:44;12.75;;;6.32;;
62584;SDS011;48643;51.670;5.808;2023-11-21T12:51:15;12.63;;;6.78;;
62584;SDS011;48643;51.670;5.808;2023-11-21T12:53:42;12.45;;;6.90;;
62584;SDS011;48643;51.670;5.808;2023-11-21T12:56:11;14.65;;;7.20;;
62584;SDS011;48643;51.670;5.808;2023-11-21T12:58:40;13.27;;;6.47;;
62584;SDS011;48643;51.670;5.808;2023-11-21T13:01:14;11.73;;;6.45;;
62584;SDS011;48643;51.670;5.808;2023-11-21T13:03:46;13.73;;;6.88;;
62584;SDS011;48643;51.670;5.808;2023-11-21T13:06:15;12.48;;;7.00;;
62584;SDS011;48643;51.670;5.808;2023-11-21T13:08:43;11.63;;;6.45;;
62584;SDS011;48643;51.670;5.808;2023-11-21T13:11:11;12.07;;;6.18;;
62584;SDS011;48643;51.670;5.808;2023-11-21T13:13:41;13.00;;;6.72;;
62584;SDS011;48643;51.670;5.808;2023-11-21T13:16:12;11.45;;;6.60;;
62584;SDS011;48643;51.670;5.808;2023-11-21T13:18:42;12.85;;;6.40;;
62584;SDS011;48643;51.670;5.808;2023-11-21T13:21:10;11.32;;;6.35;;
62584;SDS011;48643;51.670;5.808;2023-11-21T13:23:43;12.13;;;6.50;;
62584;SDS011;48643;51.670;5.808;2023-11-21T13:26:13;11.18;;;6.03;;
62584;SDS011;48643;51.670;5.808;2023-11-21T13:28:42;13.75;;;6.85;;
62584;SDS011;48643;51.670;5.808;2023-11-21T13:31:14;12.30;;;6.40;;
62584;SDS011;48643;51.670;5.808;2023-11-21T13:33:49;9.27;;;5.72;;
62584;SDS011;48643;51.670;5.808;2023-11-21T13:36:26;11.05;;;5.93;;
62584;SDS011;48643;51.670;5.808;2023-11-21T13:38:57;13.13;;;6.57;;
62584;SDS011;48643;51.670;5.808;2023-11-21T13:41:25;9.63;;;6.38;;
62584;SDS011;48643;51.670;5.808;2023-11-21T13:43:58;11.63;;;6.38;;
62584;SDS011;48643;51.670;5.808;2023-11-21T13:46:53;10.15;;;5.55;;
62584;SDS011;48643;51.670;5.808;2023-11-21T13:49:23;9.00;;;5.55;;
62584;SDS011;48643;51.670;5.808;2023-11-21T13:51:52;10.30;;;6.00;;
62584;SDS011;48643;51.670;5.808;2023-11-21T13:54:22;9.07;;;5.70;;
62584;SDS011;48643;51.670;5.808;2023-11-21T13:56:52;9.35;;;6.05;;
62584;SDS011;48643;51.670;5.808;2023-11-21T13:59:22;9.65;;;5.13;;
62584;SDS011;48643;51.670;5.808;2023-11-21T14:01:56;10.65;;;5.85;;
62584;SDS011;48643;51.670;5.808;2023-11-21T14:04:27;12.48;;;6.00;;
62584;SDS011;48643;51.670;5.808;2023-11-21T14:06:58;10.18;;;6.00;;
62584;SDS011;48643;51.670;5.808;2023-11-21T14:09:33;8.60;;;5.30;;
62584;SDS011;48643;51.670;5.808;2023-11-21T14:12:03;10.55;;;5.90;;
62584;SDS011;48643;51.670;5.808;2023-11-21T14:14:33;9.57;;;5.70;;
62584;SDS011;48643;51.670;5.808;2023-11-21T14:17:01;9.48;;;5.57;;
62584;SDS011;48643;51.670;5.808;2023-11-21T14:19:33;8.40;;;5.63;;
62584;SDS011;48643;51.670;5.808;2023-11-21T14:22:06;10.90;;;5.88;;
62584;SDS011;48643;51.670;5.808;2023-11-21T14:24:37;9.93;;;5.90;;
62584;SDS011;48643;51.670;5.808;2023-11-21T14:27:08;10.05;;;5.57;;
62584;SDS011;48643;51.670;5.808;2023-11-21T14:32:09;9.60;;;6.00;;
62584;SDS011;48643;51.670;5.808;2023-11-21T14:34:37;10.05;;;5.32;;
62584;SDS011;48643;51.670;5.808;2023-11-21T14:37:05;10.85;;;6.22;;
62584;SDS011;48643;51.670;5.808;2023-11-21T14:39:34;8.57;;;5.28;;
62584;SDS011;48643;51.670;5.808;2023-11-21T14:42:07;10.05;;;5.90;;
62584;SDS011;48643;51.670;5.808;2023-11-21T14:44:35;10.38;;;5.80;;
62584;SDS011;48643;51.670;5.808;2023-11-21T14:47:08;10.73;;;5.85;;
62584;SDS011;48643;51.670;5.808;2023-11-21T14:49:42;9.00;;;5.50;;
62584;SDS011;48643;51.670;5.808;2023-11-21T14:52:21;9.85;;;5.90;;
62584;SDS011;48643;51.670;5.808;2023-11-21T14:55:09;11.50;;;6.05;;
62584;SDS011;48643;51.670;5.808;2023-11-21T14:57:48;9.05;;;5.43;;
62584;SDS011;48643;51.670;5.808;2023-11-21T15:00:20;9.10;;;5.38;;
62584;SDS011;48643;51.670;5.808;2023-11-21T15:03:00;9.20;;;5.57;;
62584;SDS011;48643;51.670;5.808;2023-11-21T15:05:30;11.35;;;5.95;;
62584;SDS011;48643;51.670;5.808;2023-11-21T15:07:57;9.07;;;5.75;;